New York Skyports Inc. Seaplane Base

6N7 · 纽约州, 美国

罗盘
风向 的 New York Skyports Inc. Seaplane Base 18/36
风: 0 kt, 0 beaufort


改变
0 ft 1.000 2.000 3.000 4.000 5.000
没有云
METAR KNYC 202351Z AUTO 00000KT 10SM CLR 29/18 A3022 RMK AO2 SLP225 T02890183 10322 20283 56008 $

METAR New York Skyports Inc. Seaplane Base - 6N7/QNY

New York Skyports Inc. Seaplane Base是,美国中的水上飞机基地。 该机场位于纬度40,73399和经度-73,97292。 该机场有一条跑道: 18/36. 该机场的伪ICAO代码为K6N7。 该机场的本地机场标识(FAA LID)为6N7。 该机场的IATA代码为QNY。 机场在New York FIR中。

该航空气象观测是针对New York Weather Station在2024年6月20日 19:51, 当地时间进行的。

机场观察

可变方向的风很小或没有风。

可见度为10 mi。

有没有云。 没有观察到天花板。

温度和风寒是29 °C。 热指数为29。 露点为18 °C,相对湿度为51%。 海平面上的气压为30,22 inHg (QNH)。

白天

今天,太阳从05:24升起,在20:30降落。 这适用于New York Skyports Inc. Seaplane Base,世界夏令时可能有所不同。 当地时间与世界标准时间之间的时差为-4 小时。 夏令时目前正在进行中。

公司介绍

我们没有关于这个机场的公司信息。

体会

到Vliegles.nl去找飞行课程,跳伞和其他飞行体验。 浏览页面,了解New York Skyports Inc. Seaplane Base附近所有可用的活动。 你也可以使用搜索功能来寻找你所在地附近的特定飞行课程、跳伞或其他飞行体验。

跑道

Id 标题 侧风 逆风 侧风 %
18/36 180°-360°

逆风成分最大的方向会被突出显示,并用于横风计算。 这并不一定意味着这个方向在使用。

乌云

- CLR 没有云

温度 & 天气

温度 28,9 °C
露点 18,3 °C
相对湿度 51%
热度指数 29 °C
Kp-index 0 (0-9)

评论

AO2自动气象站,可确定降水类型
SLP225海平面压力为30,19 inHg (30,19 inHg)
T02890183温度为28,9 °C (84,0 °F),露点为18,3 °C (64,9 °F)
$该气象站需要维护
10322 20283 56008

白天

日出
05:24
中午
12:57
日落
20:30 (10m)

小工具

你想在你的网站上有一个关于New York Skyports Inc. Seaplane Base的当前航空天气(METAR)的小部件吗?

显示HTML代码
报告变更